Reklama

Seznam meteostanic a jejich METAR

Vyhledat místa podle abecedy:
A B C D E F G H I J K L M N O P Q R S T U V W X Y Z

Filtrovat:

ID stanice:
a/nebo
Název místa (fulltext):
 
Místo (ID)Naposledy načteno 
Kadaň - Tušimice (Tusimice) 08.04.2020 00:00 UTC Zobrazit data
Místo: Kadaň - Tušimice
Teplota: 6 °C (pocitová: 0.7 °C)
Vítr: 3 m/s z(e) 260°
Počasí:
Dohlednost: 21 km
Zákl. oblačnosti: N/A
Vlhkost: 81%
Karlovy Vary (K.Vary) 08.04.2020 00:00 UTC Zobrazit data
Místo: Karlovy Vary
Teplota: 6 °C (pocitová: 1.8 °C)
Vítr: 2 m/s z(e) 120°
Počasí: slunečno
Dohlednost: 30 km
Zákl. oblačnosti: N/A
Vlhkost: 66%
Kocelovice (Kocelovice) 08.04.2020 00:00 UTC Zobrazit data
Místo: Kocelovice
Teplota: 9 °C (pocitová: 5.6 °C)
Vítr: 2 m/s z(e) 60°
Počasí:
Dohlednost: 35 km
Zákl. oblačnosti: N/A
Vlhkost: 46%
Kopisty (Kopisty) 07.04.2020 21:00 UTC Zobrazit data
Místo: Kopisty
Teplota: 9 °C (pocitová: 18.7 °C)
Vítr: 0 m/s z(e) 0°
Počasí: skorojasno
Dohlednost: 23 km
Zákl. oblačnosti: 1/8 2400 m
Vlhkost: 66%
Kostelní Myslová (K.Myslova) 08.04.2020 00:00 UTC Zobrazit data
Místo: Kostelní Myslová
Teplota: 8 °C (pocitová: 4.4 °C)
Vítr: 2 m/s z(e) 30°
Počasí:
Dohlednost: 35 km
Zákl. oblačnosti: N/A
Vlhkost: 32%
Křešín - Kramolín (Kramolin) 08.04.2020 00:00 UTC Zobrazit data
Místo: Křešín - Kramolín
Teplota: 7 °C (pocitová: 2 °C)
Vítr: 3 m/s z(e) 130°
Počasí:
Dohlednost: 35 km
Zákl. oblačnosti: N/A
Vlhkost: 42%
Kuchařovice - Znojmo (Kucharovic) 08.04.2020 00:00 UTC Zobrazit data
Místo: Kuchařovice - Znojmo
Teplota: 10 °C (pocitová: 4.8 °C)
Vítr: 5 m/s z(e) 60°
Počasí:
Dohlednost: 35 km
Zákl. oblačnosti: N/A
Vlhkost: 28%
Kabul (OAKB) 07.04.2020 23:50 UTC Zobrazit METAR
OAKB 072350Z 27002KT 8000 NSC 06/04 Q1019 RMK A3009 BLU BLU
Kajaani (EFKI) 07.04.2020 22:50 UTC Zobrazit METAR
EFKI 072250Z AUTO 31004KT 250V350 9999 BKN003 M00/M01 Q1014
Kardla (EEKA) 31.03.2020 09:50 UTC Zobrazit METAR
EEKA 310950Z 21008KT 160V270 9999 BKN043 03/M09 Q1022
Karlsruhe/ Baden-Baden (EDSB) 07.04.2020 20:50 UTC Zobrazit METAR
EDSB 072050Z 03003KT CAVOK 15/04 Q1026
Karup (EKKA) 07.04.2020 10:50 UTC Zobrazit METAR
EKKA 071050Z AUTO 28013KT 260V340 9999 SCT039/// 14/04 Q1031
Kathmandu (VNKT) 07.04.2020 23:50 UTC Zobrazit METAR
VNKT 072350Z VRB02KT 4000 BR FEW015 14/10 Q1016 NOSIG
Katowice (EPKT) 08.04.2020 00:00 UTC Zobrazit METAR
EPKT 080000Z 06002KT CAVOK 01/M06 Q1031
Kaunas (EYKA) 07.04.2020 23:50 UTC Zobrazit METAR
EYKA 072350Z 29007KT 250V340 CAVOK 06/02 Q1028
Kavala (LGKV) 07.04.2020 17:50 UTC Zobrazit METAR
LGKV 071750Z 06015KT CAVOK 13/M05 Q1026
Kazan (UWKD) Zatím nenačteno  
Kefallinia (LGKF) 07.04.2020 14:50 UTC Zobrazit METAR
LGKF 071450Z 02012KT 9999 SCT070 17/M00 Q1022
Kemi (EFKE) 07.04.2020 23:50 UTC Zobrazit METAR
EFKE 072350Z AUTO 22008KT 190V250 CAVOK 00/M03 Q1014
Kerkira (LGKR) 07.04.2020 23:50 UTC Zobrazit METAR
LGKR 072350Z 26002KT CAVOK 08/01 Q1023 NOSIG
Kerry (EIKY) 07.04.2020 18:00 UTC Zobrazit METAR
EIKY 071800Z 21012KT 9999 SCT033 13/06 Q1024
Khartoum (HSSS) 08.04.2020 00:00 UTC Zobrazit METAR
HSSS 080000Z 34011KT CAVOK 34/01 Q1007 NOSIG
Kigali (HRYR) 08.04.2020 00:00 UTC Zobrazit METAR
HRYR 080000Z 32003KT 9999 FEW025 19/17 Q1020 NOSIG
Kingston (MKJP) 08.04.2020 00:00 UTC Zobrazit METAR
MKJP 080000Z 29006KT 9999 FEW022 29/23 Q1014
Kingstown (TVSV) 13.12.2019 20:43 UTC Zobrazit METAR
TVSV 132043Z 12005G18KT 4000 SHRA BKN014 27/23 Q1010
Kinshasa (FZAA) 07.04.2020 23:00 UTC Zobrazit METAR
FZAA 072300Z 28004KT 6000 SCT016 BKN080 28/23 Q1011 NOSIG
Kittila (EFKT) 07.04.2020 23:50 UTC Zobrazit METAR
EFKT 072350Z AUTO 23015KT CAVOK 02/M04 Q1006
Klagenfurt (LOWK) 07.04.2020 14:50 UTC Zobrazit METAR
LOWK 071450Z 09005KT 060V150 CAVOK 19/M05 Q1029 NOSIG
Kortrijk-Wevelgem (EBKT) Zatím nenačteno  
Kosice (LZKZ) 08.04.2020 00:00 UTC Zobrazit METAR
LZKZ 080000Z 03005KT CAVOK 05/M05 Q1031
Krakow (EPKK) 08.04.2020 00:00 UTC Zobrazit METAR
EPKK 080000Z 28002KT CAVOK 02/M04 Q1031
Kuala Lumpur (WMKK) 08.04.2020 00:00 UTC Zobrazit METAR
WMKK 080000Z 00000KT 9999 FEW010 26/25 Q1010 NOSIG
Kuopio (EFKU) 07.04.2020 23:50 UTC Zobrazit METAR
EFKU 072350Z AUTO 32004KT CAVOK 02/00 Q1016
Kuressaare (EEKE) 27.03.2020 13:50 UTC Zobrazit METAR
EEKE 271350Z 13004KT CAVOK 07/00 Q1029
Kuwait (OKBK) 07.04.2020 23:00 UTC Zobrazit METAR
OKBK 072300Z 19012KT 6000 FEW040 SCT080 25/15 Q1005 NOSIG
Kyiv (UKBB) Zatím nenačteno  
Reklama

Počasí na Váš email

Emaily jsou bez reklamy a bez spamu



Odhlásit newsletter

Reklama


Lunární kalendář

  • 15.04.
  • 23.04.
  • 30.04.
  • 07.05.





Vyhledat na internetu:
Reklama